Time;durP1;ratioP1;P1;durP2;ratioP2;P2;SDS_P1;SDS_P2;PMS_P1;PMS_P2;Temp;Humidity;BMP_temperature;BMP_pressure;BME280_temperature;BME280_humidity;BME280_pressure;Samples;Min_cycle;Max_cycle;Signal;HPM_P1;HPM_P2
2022/04/06 00:00:02;;;;;;;2.30;1.30;;;14.10;78.40;;;;;;4851684;29;20462;-59
2022/04/06 00:02:33;;;;;;;1.73;1.23;;;14.20;72.00;;;;;;4847863;29;20551;-59
2022/04/06 00:05:04;;;;;;;1.90;1.50;;;14.20;72.00;;;;;;4849760;29;20490;-60
2022/04/06 00:07:40;;;;;;;4.47;2.00;;;14.00;69.60;;;;;;4849903;29;20493;-60
2022/04/06 00:10:13;;;;;;;2.60;1.10;;;13.80;73.30;;;;;;4846982;29;20461;-60
2022/04/06 00:12:44;;;;;;;3.27;1.30;;;13.80;74.30;;;;;;4844668;29;20464;-61
2022/04/06 00:15:15;;;;;;;3.87;1.10;;;14.00;72.30;;;;;;4844570;29;20553;-60
2022/04/06 00:17:49;;;;;;;4.07;1.37;;;13.90;69.70;;;;;;4845005;29;20459;-59
2022/04/06 00:20:20;;;;;;;2.37;1.30;;;13.90;70.70;;;;;;4845603;29;20470;-59
2022/04/06 00:23:02;;;;;;;2.57;1.60;;;13.80;74.00;;;;;;4844354;29;20464;-58
2022/04/06 00:25:34;;;;;;;3.10;1.50;;;13.90;73.40;;;;;;4844511;29;20508;-59
2022/04/06 00:28:05;;;;;;;3.13;1.37;;;14.00;73.70;;;;;;4843915;29;20466;-59
2022/04/06 00:30:36;;;;;;;4.57;1.60;;;14.10;71.70;;;;;;4845225;29;20553;-59
2022/04/06 00:33:11;;;;;;;2.13;1.10;;;14.00;76.20;;;;;;4844602;29;20458;-60
2022/04/06 00:35:41;;;;;;;2.17;1.23;;;14.00;72.40;;;;;;4844001;29;20544;-60
2022/04/06 00:38:14;;;;;;;2.17;1.10;;;14.00;74.10;;;;;;4843698;29;20463;-60
2022/04/06 00:40:46;;;;;;;2.60;1.27;;;14.00;77.50;;;;;;4846719;29;20484;-59
2022/04/06 00:43:19;;;;;;;2.87;1.27;;;13.80;73.30;;;;;;4849289;29;20462;-60
2022/04/06 00:45:50;;;;;;;5.17;1.80;;;13.70;75.10;;;;;;4846076;29;20487;-59
2022/04/06 00:48:21;;;;;;;2.57;1.53;;;13.40;77.80;;;;;;4843918;29;20492;-60
2022/04/06 00:50:54;;;;;;;4.63;1.80;;;13.30;80.70;;;;;;4845936;29;20534;-59
2022/04/06 00:53:26;;;;;;;4.83;2.30;;;13.30;79.20;;;;;;4848329;29;20458;-59
2022/04/06 00:55:57;;;;;;;4.20;1.37;;;13.40;75.60;;;;;;4849109;29;20459;-60
2022/04/06 00:58:28;;;;;;;3.67;1.27;;;13.20;78.30;;;;;;4849326;29;20498;-60
2022/04/06 01:00:59;;;;;;;4.90;1.43;;;13.10;79.30;;;;;;4850701;29;20474;-60
2022/04/06 01:03:30;;;;;;;2.63;1.53;;;13.10;80.20;;;;;;4849011;29;20545;-61
2022/04/06 01:06:03;;;;;;;4.37;1.60;;;13.00;77.90;;;;;;4850838;29;20884;-65
2022/04/06 01:08:36;;;;;;;4.80;1.67;;;12.90;79.80;;;;;;4842361;29;20450;-64
2022/04/06 01:11:07;;;;;;;4.87;1.20;;;12.90;78.30;;;;;;4847475;29;20468;-63
2022/04/06 01:13:38;;;;;;;3.80;1.53;;;12.80;78.10;;;;;;4843462;29;20462;-64
2022/04/06 01:16:09;;;;;;;3.20;1.30;;;12.60;80.30;;;;;;4844317;29;20481;-64
2022/04/06 01:18:41;;;;;;;6.00;1.83;;;12.50;77.20;;;;;;4844044;29;20476;-62
2022/04/06 01:21:12;;;;;;;5.70;1.53;;;12.50;79.60;;;;;;4843967;29;20483;-62
2022/04/06 01:23:46;;;;;;;5.37;1.63;;;12.50;77.60;;;;;;4844037;29;20466;-64
2022/04/06 01:26:17;;;;;;;2.40;1.57;;;12.40;79.50;;;;;;4850391;29;20486;-64
2022/04/06 01:28:48;;;;;;;3.83;1.80;;;12.50;76.70;;;;;;4842548;29;20462;-64
2022/04/06 01:31:19;;;;;;;2.20;1.30;;;12.30;79.90;;;;;;4845152;29;20583;-61
2022/04/06 01:33:50;;;;;;;5.13;1.87;;;12.30;81.80;;;;;;4850448;29;20545;-61
2022/04/06 01:36:20;;;;;;;5.43;1.37;;;12.30;80.80;;;;;;4847673;29;20474;-61
2022/04/06 01:38:53;;;;;;;2.17;1.20;;;12.40;81.00;;;;;;4849668;29;20450;-60
2022/04/06 01:41:23;;;;;;;6.03;2.70;;;12.40;78.60;;;;;;4847501;29;20461;-60
2022/04/06 01:43:55;;;;;;;5.03;1.90;;;12.40;78.90;;;;;;4850344;29;20487;-59
2022/04/06 01:46:26;;;;;;;3.10;1.40;;;12.30;82.50;;;;;;4847012;29;20919;-59
2022/04/06 01:54:33;;;;;;;1.37;1.10;;;12.20;79.10;;;;;;4848386;29;20477;-59
2022/04/06 01:57:04;;;;;;;4.10;1.47;;;12.20;80.00;;;;;;4845655;29;20526;-60
2022/04/06 01:59:35;;;;;;;3.73;1.30;;;12.10;80.30;;;;;;4850370;29;20458;-59
2022/04/06 02:02:07;;;;;;;2.20;1.23;;;12.10;78.90;;;;;;4848326;29;20470;-60
2022/04/06 02:04:39;;;;;;;3.13;1.60;;;12.00;79.80;;;;;;4847489;29;20998;-60
2022/04/06 02:07:11;;;;;;;3.13;1.43;;;11.90;80.40;;;;;;4851072;29;20589;-60
2022/04/06 02:09:44;;;;;;;4.17;1.70;;;11.80;81.70;;;;;;4851952;29;20951;-60
2022/04/06 02:12:15;;;;;;;3.37;1.40;;;11.80;81.40;;;;;;4851620;29;20530;-60
2022/04/06 02:14:46;;;;;;;2.17;1.40;;;11.80;80.30;;;;;;4849927;29;20490;-60
2022/04/06 02:17:17;;;;;;;2.30;1.50;;;11.80;83.90;;;;;;4847578;29;20458;-59
2022/04/06 02:19:48;;;;;;;3.20;1.50;;;11.70;88.10;;;;;;4840230;29;20459;-60
2022/04/06 02:22:20;;;;;;;2.20;1.33;;;11.60;88.70;;;;;;4845597;29;20473;-61
2022/04/06 02:24:52;;;;;;;3.00;1.70;;;11.50;91.20;;;;;;4849873;29;20497;-60
2022/04/06 02:27:23;;;;;;;3.50;1.50;;;11.40;84.50;;;;;;4849695;29;20458;-59
2022/04/06 02:29:54;;;;;;;4.70;1.90;;;11.20;87.40;;;;;;4848792;29;20464;-60
2022/04/06 02:32:24;;;;;;;4.30;1.97;;;11.10;90.00;;;;;;4848787;29;20466;-60
2022/04/06 02:34:55;;;;;;;2.93;1.63;;;11.00;89.10;;;;;;4847213;29;20978;-60
2022/04/06 02:37:27;;;;;;;2.53;1.30;;;10.90;89.90;;;;;;4832661;29;20463;-60
2022/04/06 02:39:59;;;;;;;1.57;1.00;;;10.80;92.00;;;;;;4839157;29;20798;-60
2022/04/06 02:42:30;;;;;;;3.10;1.40;;;10.70;95.20;;;;;;4850442;29;20557;-60
2022/04/06 02:45:01;;;;;;;3.07;2.07;;;10.60;96.20;;;;;;4849936;29;20633;-60
2022/04/06 02:47:32;;;;;;;6.10;2.20;;;10.60;96.90;;;;;;4850699;29;20454;-60
2022/04/06 02:50:02;;;;;;;5.17;2.13;;;10.40;97.30;;;;;;4849557;29;20461;-60
2022/04/06 02:52:33;;;;;;;4.43;1.70;;;10.30;99.30;;;;;;4850755;29;20462;-59
2022/04/06 02:55:08;;;;;;;4.70;1.57;;;10.20;95.80;;;;;;4851005;29;20454;-59
2022/04/06 02:57:39;;;;;;;4.23;1.50;;;10.20;94.40;;;;;;4849891;29;20922;-60
2022/04/06 03:00:11;;;;;;;3.40;1.87;;;10.10;94.20;;;;;;4850472;29;20466;-60
2022/04/06 03:02:42;;;;;;;3.60;1.40;;;10.10;95.40;;;;;;4850902;29;20476;-60
2022/04/06 03:05:13;;;;;;;4.23;2.03;;;10.00;97.70;;;;;;4843572;29;20502;-60
2022/04/06 03:07:44;;;;;;;3.07;1.70;;;9.90;98.50;;;;;;4846018;29;20498;-60
2022/04/06 03:10:17;;;;;;;6.17;2.33;;;9.90;99.90;;;;;;4846185;29;20451;-60
2022/04/06 03:12:48;;;;;;;2.80;1.83;;;9.80;99.90;;;;;;4848014;29;20486;-60
2022/04/06 03:15:19;;;;;;;3.70;2.30;;;9.70;99.90;;;;;;4851090;29;20466;-60
2022/04/06 03:17:50;;;;;;;3.50;2.27;;;9.70;99.90;;;;;;4848827;29;20470;-60
2022/04/06 03:20:21;;;;;;;2.20;2.00;;;9.60;99.90;;;;;;4851277;29;20466;-60
2022/04/06 03:22:51;;;;;;;3.95;2.40;;;9.60;99.90;;;;;;4846414;29;20467;-58
2022/04/06 03:25:25;;;;;;;3.73;2.70;;;9.60;99.90;;;;;;4833145;29;20233;-60
2022/04/06 03:27:56;;;;;;;4.10;2.40;;;9.50;99.60;;;;;;4844041;29;20451;-60
2022/04/06 03:30:27;;;;;;;4.33;2.37;;;9.50;99.90;;;;;;4850184;29;20226;-60
2022/04/06 03:32:58;;;;;;;4.13;2.23;;;9.50;96.00;;;;;;4849439;29;20473;-60
2022/04/06 03:35:29;;;;;;;4.30;2.13;;;9.60;95.80;;;;;;4849922;29;20479;-60
2022/04/06 03:38:00;;;;;;;8.52;2.63;;;9.60;94.90;;;;;;4849101;29;20868;-60
2022/04/06 03:40:32;;;;;;;2.03;1.63;;;9.50;94.80;;;;;;4849358;29;20589;-60
2022/04/06 03:43:03;;;;;;;3.38;2.13;;;9.40;95.50;;;;;;4848079;29;20209;-60
2022/04/06 03:45:34;;;;;;;6.30;2.30;;;9.30;95.50;;;;;;4846652;29;20233;-60
2022/04/06 03:48:05;;;;;;;5.18;1.63;;;9.30;94.10;;;;;;4835402;29;20705;-60
2022/04/06 03:50:36;;;;;;;6.45;2.08;;;9.40;93.50;;;;;;4849960;29;20209;-59
2022/04/06 03:53:07;;;;;;;3.65;1.70;;;9.40;92.60;;;;;;4849474;29;20205;-59
2022/04/06 03:55:39;;;;;;;3.27;1.70;;;9.30;93.60;;;;;;4847583;29;20194;-60
2022/04/06 03:58:10;;;;;;;2.85;1.90;;;9.30;93.10;;;;;;4844017;29;20459;-60
2022/04/06 04:00:41;;;;;;;4.22;1.88;;;9.30;92.70;;;;;;4842219;29;20260;-60
2022/04/06 04:03:11;;;;;;;7.68;2.20;;;9.20;93.30;;;;;;4851007;29;20205;-59
2022/04/06 04:05:42;;;;;;;3.45;2.08;;;9.10;93.00;;;;;;4846131;29;20244;-59
2022/04/06 04:08:13;;;;;;;4.93;2.35;;;9.10;93.20;;;;;;4848951;29;20225;-59
2022/04/06 04:10:46;;;;;;;3.55;2.92;;;9.10;93.30;;;;;;4840822;29;20201;-59
2022/04/06 04:13:17;;;;;;;3.80;1.70;;;9.00;93.60;;;;;;4851951;29;20202;-59
2022/04/06 04:15:48;;;;;;;5.93;2.65;;;9.00;94.00;;;;;;4853373;29;20261;-58
2022/04/06 04:18:19;;;;;;;3.53;2.20;;;8.90;94.10;;;;;;4851456;29;20213;-58
2022/04/06 04:20:49;;;;;;;3.92;1.58;;;8.90;94.20;;;;;;4853536;29;20659;-59
2022/04/06 04:23:20;;;;;;;3.03;1.98;;;8.90;94.20;;;;;;4849882;29;20213;-58
2022/04/06 04:25:54;;;;;;;3.28;2.20;;;8.80;95.30;;;;;;4838990;29;20225;-56
2022/04/06 04:28:25;;;;;;;4.07;1.65;;;8.70;95.30;;;;;;4842366;29;20224;-58
2022/04/06 04:30:56;;;;;;;4.35;2.00;;;8.70;94.60;;;;;;4852669;29;20206;-58
2022/04/06 04:33:27;;;;;;;10.07;2.20;;;8.70;94.90;;;;;;4852771;29;20285;-58
2022/04/06 04:35:57;;;;;;;8.63;2.15;;;8.70;94.80;;;;;;4852172;29;20229;-57
2022/04/06 04:38:31;;;;;;;2.75;1.70;;;8.60;94.70;;;;;;4852061;29;20205;-59
2022/04/06 04:41:03;;;;;;;3.22;2.00;;;8.60;95.50;;;;;;4846012;29;20202;-58
2022/04/06 04:43:34;;;;;;;3.63;2.15;;;8.50;96.50;;;;;;4850275;29;20241;-58
2022/04/06 04:46:05;;;;;;;7.50;2.40;;;8.40;97.00;;;;;;4846363;29;20297;-58
2022/04/06 04:48:37;;;;;;;2.63;1.75;;;8.40;96.10;;;;;;4839689;29;20292;-59
2022/04/06 04:51:09;;;;;;;3.28;2.03;;;8.30;96.70;;;;;;4843511;29;20210;-60
2022/04/06 04:53:40;;;;;;;4.78;2.38;;;8.20;99.00;;;;;;4840787;29;20220;-59
2022/04/06 04:56:12;;;;;;;5.45;1.85;;;8.10;97.60;;;;;;4849558;29;20210;-59
2022/04/06 04:58:43;;;;;;;4.15;2.22;;;8.10;97.90;;;;;;4838124;29;20213;-58
2022/04/06 05:01:14;;;;;;;3.13;2.22;;;8.00;98.70;;;;;;4848516;29;20206;-59
2022/04/06 05:03:45;;;;;;;8.45;2.75;;;8.00;98.40;;;;;;4842861;29;20253;-58
2022/04/06 05:06:16;;;;;;;5.07;2.00;;;7.90;98.60;;;;;;4842119;29;20613;-57
2022/04/06 05:08:46;;;;;;;5.80;2.00;;;7.90;97.80;;;;;;4841530;29;20193;-58
2022/04/06 05:11:19;;;;;;;5.97;1.95;;;7.90;98.20;;;;;;4844426;29;20198;-58
2022/04/06 05:13:50;;;;;;;4.38;2.22;;;7.80;99.90;;;;;;4846430;29;20214;-59
2022/04/06 05:16:21;;;;;;;3.17;2.00;;;7.80;99.90;;;;;;4848197;29;20217;-58
2022/04/06 05:18:52;;;;;;;3.60;2.50;;;7.70;99.50;;;;;;4847581;29;20231;-58
2022/04/06 05:21:25;;;;;;;5.03;2.53;;;7.60;99.90;;;;;;4849092;29;20213;-59
2022/04/06 05:23:56;;;;;;;5.78;2.30;;;7.60;99.90;;;;;;4852241;29;20220;-58
2022/04/06 05:26:28;;;;;;;2.97;1.75;;;7.50;99.90;;;;;;4852692;29;20221;-58
2022/04/06 05:28:59;;;;;;;9.27;3.33;;;7.50;99.90;;;;;;4851289;29;20232;-59
2022/04/06 05:31:30;;;;;;;4.10;2.15;;;7.40;99.90;;;;;;4837080;29;20218;-57
2022/04/06 05:34:01;;;;;;;5.38;2.25;;;7.30;99.90;;;;;;4846808;29;20263;-58
2022/04/06 05:36:32;;;;;;;2.85;2.10;;;7.20;99.90;;;;;;4852277;29;20221;-58
2022/04/06 05:39:03;;;;;;;7.80;3.55;;;7.20;99.90;;;;;;4850072;29;20193;-58
2022/04/06 05:41:35;;;;;;;8.13;3.47;;;7.20;99.90;;;;;;4850946;29;20232;-58
2022/04/06 05:44:06;;;;;;;6.22;2.67;;;7.10;99.90;;;;;;4846183;29;20201;-58
2022/04/06 05:46:37;;;;;;;5.97;2.95;;;7.10;99.90;;;;;;4848407;29;20248;-58
2022/04/06 05:49:08;;;;;;;10.15;3.97;;;7.10;99.90;;;;;;4845504;29;20201;-58
2022/04/06 05:51:39;;;;;;;8.60;2.90;;;7.00;99.90;;;;;;4839612;29;20212;-58
2022/04/06 05:54:09;;;;;;;9.63;3.30;;;7.00;99.90;;;;;;4847783;29;20201;-58
2022/04/06 05:56:42;;;;;;;4.82;2.90;;;6.90;99.90;;;;;;4838932;29;20654;-58
2022/04/06 05:59:13;;;;;;;2.72;2.50;;;6.80;99.90;;;;;;4846789;29;20217;-58
2022/04/06 06:01:43;;;;;;;5.22;2.80;;;6.80;99.90;;;;;;4841403;29;20213;-58
2022/04/06 06:04:14;;;;;;;7.43;3.58;;;6.90;99.90;;;;;;4846695;29;20206;-59
2022/04/06 06:06:45;;;;;;;3.28;2.90;;;6.80;99.90;;;;;;4843730;29;20256;-58
2022/04/06 06:09:18;;;;;;;7.25;3.38;;;6.70;99.90;;;;;;4851388;29;20355;-59
2022/04/06 06:11:50;;;;;;;3.92;3.05;;;6.70;99.90;;;;;;4845500;29;20209;-59
2022/04/06 06:14:21;;;;;;;7.22;2.67;;;6.50;99.90;;;;;;4849776;29;20221;-59
2022/04/06 06:16:52;;;;;;;6.72;3.63;;;6.50;99.90;;;;;;4848185;29;20213;-59
2022/04/06 06:19:27;;;;;;;8.48;2.83;;;6.50;99.90;;;;;;4850293;29;20205;-58
2022/04/06 06:21:57;;;;;;;8.45;4.20;;;6.50;99.90;;;;;;4844926;29;20201;-58
2022/04/06 06:24:31;;;;;;;6.18;2.65;;;6.40;99.90;;;;;;4847542;29;20205;-59
2022/04/06 06:27:04;;;;;;;7.28;2.67;;;6.40;99.90;;;;;;4850387;29;20244;-58
2022/04/06 06:29:35;;;;;;;7.05;2.30;;;6.30;99.90;;;;;;4848229;29;20219;-59
2022/04/06 06:32:08;;;;;;;11.82;2.50;;;6.20;99.90;;;;;;4841129;29;20209;-58
2022/04/06 06:34:39;;;;;;;6.75;2.45;;;6.30;99.90;;;;;;4848133;29;20220;-58
2022/04/06 06:37:12;;;;;;;7.00;3.45;;;6.20;99.90;;;;;;4836439;29;20324;-57
2022/04/06 06:39:43;;;;;;;6.50;3.25;;;6.10;99.90;;;;;;4846432;29;20202;-58
2022/04/06 06:42:15;;;;;;;5.45;2.95;;;6.10;99.90;;;;;;4846138;29;20202;-58
2022/04/06 06:44:46;;;;;;;8.95;3.22;;;6.00;99.90;;;;;;4849689;29;20217;-58
2022/04/06 06:47:17;;;;;;;5.63;3.45;;;6.00;99.90;;;;;;4848931;29;20243;-59
2022/04/06 06:49:48;;;;;;;6.22;2.80;;;6.00;99.90;;;;;;4846467;29;20584;-58
2022/04/06 06:52:18;;;;;;;7.82;3.45;;;6.00;99.90;;;;;;4844668;29;20332;-57
2022/04/06 06:54:49;;;;;;;4.75;3.65;;;5.90;99.90;;;;;;4846564;29;20197;-58
2022/04/06 06:57:22;;;;;;;7.82;3.72;;;5.80;99.90;;;;;;4845517;29;20221;-58
2022/04/06 06:59:52;;;;;;;7.75;3.90;;;5.80;99.90;;;;;;4839366;29;20228;-58
2022/04/06 07:02:23;;;;;;;9.40;3.33;;;5.80;99.90;;;;;;4845595;29;20213;-58
2022/04/06 07:04:54;;;;;;;6.45;3.50;;;5.70;99.90;;;;;;4840500;29;20213;-58
2022/04/06 07:07:25;;;;;;;8.13;3.63;;;5.70;99.90;;;;;;4843959;29;20252;-59
2022/04/06 07:09:56;;;;;;;9.40;3.38;;;5.70;99.90;;;;;;4842886;29;20201;-57
2022/04/06 07:12:28;;;;;;;6.05;3.00;;;5.60;99.90;;;;;;4846190;29;20220;-58
2022/04/06 07:14:59;;;;;;;6.68;3.88;;;5.60;99.90;;;;;;4849647;29;20213;-57
2022/04/06 07:17:31;;;;;;;7.68;3.58;;;5.50;99.90;;;;;;4849492;29;20205;-58
2022/04/06 07:20:02;;;;;;;5.53;3.85;;;5.50;99.90;;;;;;4848081;29;20209;-59
2022/04/06 07:22:33;;;;;;;5.97;3.70;;;5.50;99.90;;;;;;4846101;29;20233;-59
2022/04/06 07:25:04;;;;;;;9.82;3.70;;;5.50;99.90;;;;;;4849958;29;20228;-59
2022/04/06 07:27:39;;;;;;;7.70;2.60;;;5.30;99.90;;;;;;4848726;29;20322;-55
2022/04/06 07:30:12;;;;;;;7.57;3.13;;;5.40;99.90;;;;;;4849923;29;20222;-59
2022/04/06 07:32:43;;;;;;;5.80;3.05;;;5.40;99.90;;;;;;4849289;29;20219;-59
2022/04/06 07:35:15;;;;;;;7.50;3.80;;;5.30;99.90;;;;;;4851848;29;20213;-57
2022/04/06 07:37:47;;;;;;;6.45;3.72;;;5.20;99.90;;;;;;4849684;29;20225;-58
2022/04/06 07:40:20;;;;;;;5.93;3.05;;;5.10;99.90;;;;;;4847075;29;20220;-58
2022/04/06 07:42:54;;;;;;;5.45;3.22;;;5.00;99.90;;;;;;4850309;29;20210;-58
2022/04/06 07:45:29;;;;;;;10.05;3.55;;;5.00;99.90;;;;;;4847622;29;20212;-59
2022/04/06 07:48:00;;;;;;;6.90;3.45;;;5.00;99.90;;;;;;4848609;29;20241;-59
2022/04/06 07:50:32;;;;;;;5.50;3.30;;;4.90;99.90;;;;;;4849854;29;20235;-59
2022/04/06 07:53:03;;;;;;;8.00;3.47;;;4.90;99.90;;;;;;4844993;29;20201;-59
2022/04/06 07:55:33;;;;;;;10.30;3.83;;;4.80;99.90;;;;;;4848447;29;20213;-59
2022/04/06 07:58:06;;;;;;;7.20;3.80;;;4.80;99.90;;;;;;4842260;29;20549;-58
2022/04/06 08:00:37;;;;;;;6.38;3.03;;;4.80;99.90;;;;;;4839861;29;20207;-58
2022/04/06 08:03:07;;;;;;;8.10;3.40;;;4.80;99.90;;;;;;4841686;29;20194;-59
2022/04/06 08:05:38;;;;;;;10.75;3.80;;;4.80;99.90;;;;;;4844185;29;20277;-56
2022/04/06 08:08:09;;;;;;;6.43;3.30;;;4.70;99.90;;;;;;4850872;29;20241;-59
2022/04/06 08:10:40;;;;;;;12.45;4.88;;;4.70;99.90;;;;;;4853439;29;20210;-59
2022/04/06 08:13:13;;;;;;;8.63;4.00;;;4.70;99.90;;;;;;4851474;29;20233;-58
2022/04/06 08:15:43;;;;;;;4.60;3.28;;;4.60;99.90;;;;;;4852993;29;20213;-59
2022/04/06 08:18:14;;;;;;;10.13;4.80;;;4.60;99.90;;;;;;4843367;29;20216;-58
2022/04/06 08:20:45;;;;;;;4.97;3.80;;;4.50;99.90;;;;;;4848403;29;20210;-59
2022/04/06 08:23:17;;;;;;;7.97;4.35;;;4.50;99.90;;;;;;4837576;29;20210;-58
2022/04/06 08:25:49;;;;;;;9.05;3.95;;;4.50;99.90;;;;;;4837012;29;20218;-58
2022/04/06 08:28:22;;;;;;;5.47;3.63;;;4.50;99.90;;;;;;4848978;29;20245;-58
2022/04/06 08:30:53;;;;;;;7.45;3.80;;;4.40;99.90;;;;;;4839360;29;20268;-58
2022/04/06 08:33:24;;;;;;;8.23;5.40;;;4.30;99.90;;;;;;4844566;29;20324;-57
2022/04/06 08:35:56;;;;;;;6.85;3.90;;;4.30;99.90;;;;;;4846936;29;20198;-58
2022/04/06 08:38:27;;;;;;;8.43;3.65;;;4.30;99.90;;;;;;4840477;29;20563;-57
2022/04/06 08:40:58;;;;;;;8.77;4.07;;;4.30;99.90;;;;;;4839581;29;20218;-56
2022/04/06 08:43:30;;;;;;;4.78;3.53;;;4.20;99.90;;;;;;4849040;29;20209;-58
2022/04/06 08:46:01;;;;;;;4.88;3.78;;;4.20;99.90;;;;;;4850886;29;20213;-56
2022/04/06 08:48:33;;;;;;;8.07;3.83;;;4.20;99.90;;;;;;4852186;29;20229;-57
2022/04/06 08:51:08;;;;;;;6.68;3.80;;;4.10;99.90;;;;;;4853117;29;20286;-56
2022/04/06 08:53:41;;;;;;;6.63;3.88;;;4.10;99.90;;;;;;4842274;29;20219;-58
2022/04/06 08:56:12;;;;;;;9.80;3.88;;;4.00;99.90;;;;;;4847074;29;20209;-58
2022/04/06 08:58:45;;;;;;;11.75;4.20;;;4.00;99.90;;;;;;4846749;29;20210;-57
2022/04/06 09:01:18;;;;;;;4.45;2.95;;;4.00;99.90;;;;;;4844524;29;20206;-57
2022/04/06 09:03:49;;;;;;;5.35;3.35;;;3.90;99.90;;;;;;4846181;29;20623;-55
2022/04/06 09:06:21;;;;;;;8.05;5.88;;;3.90;99.90;;;;;;4848363;29;20218;-57
2022/04/06 09:08:52;;;;;;;7.28;3.38;;;3.90;99.90;;;;;;4837590;29;20252;-58
2022/04/06 09:11:23;;;;;;;8.05;3.97;;;3.90;99.90;;;;;;4848617;29;20638;-56
2022/04/06 09:14:02;;;;;;;10.50;4.70;;;3.90;99.90;;;;;;4833453;29;20222;-56
2022/04/06 09:16:33;;;;;;;7.50;3.75;;;3.90;99.90;;;;;;4847191;29;20237;-57
2022/04/06 09:19:09;;;;;;;6.72;3.97;;;3.80;99.90;;;;;;4840200;29;20354;-56
2022/04/06 09:21:44;;;;;;;9.30;4.28;;;3.70;99.90;;;;;;4848998;29;20966;-56
2022/04/06 09:24:19;;;;;;;10.82;3.63;;;3.70;99.90;;;;;;4849591;29;20200;-56
2022/04/06 09:26:58;;;;;;;14.52;5.85;;;3.70;99.90;;;;;;4851349;29;20650;-57
2022/04/06 09:29:34;;;;;;;14.93;4.10;;;3.70;99.90;;;;;;4847446;29;20350;-58
2022/04/06 09:32:09;;;;;;;8.93;4.30;;;3.70;99.90;;;;;;4850154;29;20213;-58
2022/04/06 09:35:00;;;;;;;8.75;4.03;;;3.70;99.90;;;;;;4852364;29;20266;-58
2022/04/06 09:37:32;;;;;;;8.40;4.30;;;3.60;99.90;;;;;;4851608;29;20222;-53
2022/04/06 09:40:11;;;;;;;8.43;4.43;;;3.60;99.90;;;;;;4851297;29;20219;-58
2022/04/06 09:42:54;;;;;;;5.22;3.50;;;3.50;99.90;;;;;;4845526;29;20206;-57
2022/04/06 09:48:20;;;;;;;8.30;4.18;;;3.50;99.90;;;;;;4851875;29;20213;-56
2022/04/06 09:50:59;;;;;;;6.20;4.15;;;3.60;99.90;;;;;;4846960;29;20221;-58
2022/04/06 09:53:30;;;;;;;10.32;4.28;;;3.50;99.90;;;;;;4840141;29;20234;-57
2022/04/06 09:56:02;;;;;;;13.23;5.22;;;3.40;99.90;;;;;;4843226;29;20210;-58
2022/04/06 09:58:33;;;;;;;7.60;4.53;;;3.40;99.90;;;;;;4847107;29;20213;-57
2022/04/06 10:01:06;;;;;;;10.07;5.40;;;3.50;99.90;;;;;;4843409;29;20204;-58
2022/04/06 10:03:40;;;;;;;13.30;6.75;;;3.40;99.90;;;;;;4846670;29;20259;-58
2022/04/06 10:06:12;;;;;;;9.35;4.90;;;3.50;99.90;;;;;;4838961;29;20206;-59
2022/04/06 10:08:43;;;;;;;10.32;4.53;;;3.30;99.90;;;;;;4839789;29;20198;-57
2022/04/06 10:11:14;;;;;;;8.10;5.38;;;3.30;99.90;;;;;;4839012;29;20214;-58
2022/04/06 10:13:46;;;;;;;11.05;6.65;;;3.30;99.90;;;;;;4849294;29;20225;-58
2022/04/06 10:16:25;;;;;;;7.32;4.53;;;3.20;99.90;;;;;;4845663;29;20210;-58
2022/04/06 10:18:57;;;;;;;5.95;3.97;;;3.10;99.90;;;;;;4848982;29;20202;-57
2022/04/06 10:21:38;;;;;;;13.10;4.55;;;3.10;99.90;;;;;;4848429;29;20213;-58
2022/04/06 10:24:26;;;;;;;8.15;4.20;;;3.10;99.90;;;;;;4840110;29;20624;-59
2022/04/06 10:27:13;;;;;;;6.20;4.63;;;3.20;99.90;;;;;;4849534;29;20220;-57
2022/04/06 10:30:13;;;;;;;13.13;4.45;;;3.20;99.90;;;;;;4849542;29;20262;-58
2022/04/06 10:32:48;;;;;;;7.93;4.05;;;3.30;99.90;;;;;;4842755;29;20232;-58
2022/04/06 10:35:24;;;;;;;10.90;6.38;;;3.20;99.90;;;;;;4850468;29;20209;-58
2022/04/06 10:38:22;;;;;;;5.85;4.47;;;3.10;99.90;;;;;;4844662;29;20219;-58
2022/04/06 10:41:08;;;;;;;9.18;4.63;;;3.10;99.90;;;;;;4840219;29;20206;-58
2022/04/06 10:43:58;;;;;;;9.95;5.75;;;3.00;99.90;;;;;;4843205;29;20220;-58
2022/04/06 10:46:39;;;;;;;6.60;4.20;;;3.00;99.90;;;;;;4838277;29;20208;-58
2022/04/06 10:49:16;;;;;;;5.95;4.50;;;3.00;99.90;;;;;;4836057;29;20226;-58
2022/04/06 10:51:48;;;;;;;6.70;4.70;;;2.90;99.90;;;;;;4838064;29;20236;-56
2022/04/06 10:54:41;;;;;;;10.05;5.35;;;2.90;99.90;;;;;;4843682;29;20787;-58
2022/04/06 10:57:13;;;;;;;11.48;4.63;;;2.80;99.90;;;;;;4847153;29;20212;-58
2022/04/06 10:59:44;;;;;;;10.73;6.03;;;2.80;99.90;;;;;;4839465;29;20217;-58
2022/04/06 11:02:25;;;;;;;7.13;4.35;;;2.80;99.90;;;;;;4847969;29;20223;-59
2022/04/06 11:04:58;;;;;;;8.00;5.55;;;2.80;99.90;;;;;;4838865;29;20274;-57
2022/04/06 11:10:43;;;;;;;11.27;4.43;;;2.80;99.90;;;;;;4811808;29;20226;-56
2022/04/06 11:13:27;;;;;;;5.82;4.15;;;2.80;99.90;;;;;;4814534;29;20240;-56
2022/04/06 11:15:58;;;;;;;6.72;4.40;;;2.80;99.90;;;;;;4811821;29;20215;-59
2022/04/06 11:18:48;;;;;;;8.48;4.45;;;2.70;99.90;;;;;;4814635;29;20224;-56
2022/04/06 11:21:24;;;;;;;6.60;3.90;;;2.80;99.90;;;;;;4808828;29;20251;-58
2022/04/06 11:23:54;;;;;;;10.68;4.82;;;2.80;99.90;;;;;;4803848;29;20207;-58
2022/04/06 11:26:26;;;;;;;9.73;4.28;;;2.70;99.90;;;;;;4806587;29;20576;-58
2022/04/06 11:29:00;;;;;;;8.77;5.30;;;2.70;99.90;;;;;;4809577;29;20209;-58
2022/04/06 11:31:31;;;;;;;12.23;5.50;;;2.80;99.90;;;;;;4804802;29;20220;-57
2022/04/06 11:34:03;;;;;;;14.27;5.53;;;2.70;99.90;;;;;;4805390;29;20223;-58
2022/04/06 11:36:39;;;;;;;8.07;4.78;;;2.60;99.90;;;;;;4803343;29;20301;-58
2022/04/06 11:39:10;;;;;;;7.47;4.97;;;2.60;99.90;;;;;;4811870;29;20211;-57
2022/04/06 11:41:44;;;;;;;9.35;4.82;;;2.60;99.90;;;;;;4797242;29;20330;-57
2022/04/06 11:44:21;;;;;;;9.23;4.60;;;2.60;99.90;;;;;;4813634;29;20222;-58
2022/04/06 11:46:53;;;;;;;14.43;4.35;;;2.60;99.90;;;;;;4835966;29;20209;-57
2022/04/06 11:49:24;;;;;;;8.02;4.55;;;2.60;99.90;;;;;;4847758;29;20270;-56
2022/04/06 11:51:57;;;;;;;13.15;4.40;;;2.60;99.90;;;;;;4847366;29;20277;-58
2022/04/06 11:54:30;;;;;;;7.18;5.07;;;2.60;99.90;;;;;;4851701;29;20655;-58
2022/04/06 11:57:00;;;;;;;7.00;4.38;;;2.60;99.90;;;;;;4840638;29;20273;-58
2022/04/06 11:59:32;;;;;;;8.77;4.75;;;2.60;99.90;;;;;;4852799;29;20280;-58
2022/04/06 12:02:03;;;;;;;12.50;4.72;;;2.60;99.90;;;;;;4847986;29;20203;-58
2022/04/06 12:04:34;;;;;;;11.18;5.82;;;2.50;99.90;;;;;;4837203;29;20366;-59
2022/04/06 12:07:18;;;;;;;10.43;4.90;;;2.50;99.90;;;;;;4852596;29;20236;-58
2022/04/06 12:09:51;;;;;;;10.82;4.97;;;2.40;99.90;;;;;;4851339;29;20233;-58
2022/04/06 12:12:22;;;;;;;8.32;5.20;;;2.40;99.90;;;;;;4844159;29;20649;-58
2022/04/06 12:14:54;;;;;;;10.50;5.65;;;2.40;99.90;;;;;;4841081;29;20214;-58
2022/04/06 12:17:25;;;;;;;11.63;4.78;;;2.50;99.90;;;;;;4837435;29;20205;-58
2022/04/06 12:19:56;;;;;;;14.05;4.80;;;2.60;99.90;;;;;;4842693;29;20224;-58
2022/04/06 12:22:29;;;;;;;9.70;4.47;;;2.50;99.90;;;;;;4846301;29;20209;-57
2022/04/06 12:25:00;;;;;;;12.07;5.55;;;2.50;99.90;;;;;;4852398;29;20228;-58
2022/04/06 12:27:31;;;;;;;6.53;4.75;;;2.50;99.90;;;;;;4844696;29;20752;-57
2022/04/06 12:30:07;;;;;;;7.93;4.25;;;2.50;99.90;;;;;;4843939;29;20681;-56
2022/04/06 12:32:45;;;;;;;7.05;5.18;;;2.50;99.90;;;;;;4848785;29;20292;-57
2022/04/06 12:35:20;;;;;;;11.20;5.18;;;2.40;99.90;;;;;;4851297;29;20285;-58
2022/04/06 12:37:53;;;;;;;7.75;3.95;;;2.40;99.90;;;;;;4842539;29;20320;-57
2022/04/06 12:40:24;;;;;;;9.15;3.83;;;2.40;99.90;;;;;;4835059;29;20214;-57
2022/04/06 12:42:55;;;;;;;10.02;4.43;;;2.50;99.90;;;;;;4837475;29;20273;-58
2022/04/06 12:45:26;;;;;;;4.93;4.38;;;2.50;99.90;;;;;;4852852;29;20205;-56
2022/04/06 12:48:18;;;;;;;7.38;3.75;;;2.40;99.90;;;;;;4852002;29;20213;-55
2022/04/06 12:51:24;;;;;;;6.47;3.80;;;2.30;99.90;;;;;;4844849;29;20687;-58
2022/04/06 12:53:57;;;;;;;9.73;4.20;;;2.30;99.90;;;;;;4834563;29;20218;-56
2022/04/06 12:56:28;;;;;;;8.65;5.70;;;2.30;99.90;;;;;;4839090;29;20206;-55
2022/04/06 12:59:09;;;;;;;9.73;5.18;;;2.20;99.90;;;;;;4851914;29;20209;-56
2022/04/06 13:01:47;;;;;;;9.15;5.40;;;2.30;99.90;;;;;;4847607;29;20335;-57
2022/04/06 13:04:18;;;;;;;6.78;5.25;;;2.20;99.90;;;;;;4847571;29;20213;-58
2022/04/06 13:06:49;;;;;;;9.40;4.53;;;2.20;99.90;;;;;;4844551;29;20241;-58
2022/04/06 13:09:21;;;;;;;8.85;5.57;;;2.20;99.90;;;;;;4836912;29;20209;-57
2022/04/06 13:11:52;;;;;;;8.90;5.80;;;2.30;99.90;;;;;;4850455;29;20240;-54
2022/04/06 13:14:28;;;;;;;13.05;6.00;;;2.30;99.90;;;;;;4837888;29;20236;-55
2022/04/06 13:17:00;;;;;;;7.10;5.53;;;2.20;99.90;;;;;;4842889;29;20232;-57
2022/04/06 13:19:31;;;;;;;7.30;5.43;;;2.30;99.90;;;;;;4851485;29;20269;-57
2022/04/06 13:22:02;;;;;;;13.43;5.50;;;2.30;99.90;;;;;;4834894;29;20206;-56
2022/04/06 13:24:34;;;;;;;8.60;5.43;;;2.30;99.90;;;;;;4836238;29;20218;-56
2022/04/06 13:27:05;;;;;;;10.57;4.85;;;2.30;99.90;;;;;;4846390;29;20210;-54
2022/04/06 13:29:36;;;;;;;8.95;5.32;;;2.30;99.90;;;;;;4848524;29;20244;-56
2022/04/06 13:32:08;;;;;;;11.88;5.60;;;2.30;99.90;;;;;;4845359;29;20249;-56